Time;durP1;ratioP1;P1;durP2;ratioP2;P2;SDS_P1;SDS_P2;PMS_P1;PMS_P2;Temp;Humidity;BMP_temperature;BMP_pressure;BME280_temperature;BME280_humidity;BME280_pressure;Samples;Min_cycle;Max_cycle;Signal;HPM_P1;HPM_P2
2020/12/16 00:02:25;;;;;;;40.73;17.90;;;4.30;99.90;;;;;;4866744;29;20680;-89
2020/12/16 00:04:51;;;;;;;40.67;17.13;;;2.50;99.90;;;;;;4882593;29;20185;-90
2020/12/16 00:07:18;;;;;;;41.97;16.30;;;2.60;99.90;;;;;;4899114;29;20271;-89
2020/12/16 00:09:44;;;;;;;49.03;20.23;;;2.10;99.90;;;;;;4866812;29;20218;-89
2020/12/16 00:12:09;;;;;;;46.37;17.90;;;2.10;99.90;;;;;;4882060;29;20193;-88
2020/12/16 00:14:35;;;;;;;43.97;17.87;;;3.60;99.90;;;;;;4882575;29;20682;-88
2020/12/16 00:17:01;;;;;;;43.73;18.47;;;3.30;99.90;;;;;;4882422;29;20230;-88
2020/12/16 00:19:26;;;;;;;44.63;19.10;;;3.10;99.90;;;;;;4882180;29;20633;-88
2020/12/16 00:21:52;;;;;;;47.23;19.67;;;2.60;99.90;;;;;;4882478;29;20181;-88
2020/12/16 00:24:18;;;;;;;43.93;19.00;;;2.20;99.90;;;;;;4882066;29;20204;-88
2020/12/16 00:26:44;;;;;;;54.73;24.50;;;3.70;99.90;;;;;;4882372;29;20193;-88
2020/12/16 00:29:12;;;;;;;59.47;26.53;;;2.20;99.90;;;;;;4881925;29;20185;-88
2020/12/16 00:31:38;;;;;;;54.70;23.20;;;3.70;99.90;;;;;;4882159;29;20189;-88
2020/12/16 00:34:05;;;;;;;52.77;22.70;;;3.10;99.90;;;;;;4866476;29;20245;-88
2020/12/16 00:36:35;;;;;;;40.80;17.97;;;4.00;99.90;;;;;;4882364;29;20472;-88
2020/12/16 00:39:01;;;;;;;41.23;17.50;;;2.80;99.90;;;;;;4899097;29;20185;-87
2020/12/16 00:41:31;;;;;;;45.57;18.37;;;2.20;99.90;;;;;;4881243;29;20574;-88
2020/12/16 00:43:57;;;;;;;42.67;18.07;;;2.20;99.90;;;;;;4882312;29;20644;-88
2020/12/16 00:46:23;;;;;;;39.23;16.97;;;2.00;99.90;;;;;;4881665;29;20181;-88
2020/12/16 00:48:49;;;;;;;37.50;18.00;;;2.60;99.90;;;;;;4882077;29;20204;-88
2020/12/16 00:51:15;;;;;;;46.70;19.27;;;2.60;99.90;;;;;;4866133;29;20585;-88
2020/12/16 00:53:40;;;;;;;36.87;15.80;;;2.20;99.90;;;;;;4881801;29;20213;-88
2020/12/16 00:56:06;;;;;;;35.30;15.20;;;2.20;99.90;;;;;;4866218;29;20247;-90
2020/12/16 00:58:31;;;;;;;34.37;15.20;;;2.50;99.90;;;;;;4881633;29;20185;-88
2020/12/16 01:00:57;;;;;;;34.40;14.63;;;2.90;99.90;;;;;;4881945;29;20271;-88
2020/12/16 01:03:23;;;;;;;34.27;15.63;;;2.40;99.90;;;;;;4865949;29;20273;-89
2020/12/16 01:05:48;;;;;;;34.17;14.77;;;3.10;99.90;;;;;;4866135;29;20516;-89
2020/12/16 01:08:14;;;;;;;33.13;15.67;;;2.30;99.90;;;;;;4881330;29;20525;-89
2020/12/16 01:10:39;;;;;;;40.33;18.23;;;2.70;99.90;;;;;;4866030;29;20666;-89
2020/12/16 01:13:05;;;;;;;41.17;18.30;;;3.90;99.90;;;;;;4881545;29;20319;-88
2020/12/16 01:15:31;;;;;;;34.77;15.73;;;2.60;99.90;;;;;;4881211;29;20279;-88
2020/12/16 01:17:56;;;;;;;39.63;16.43;;;2.40;99.90;;;;;;4881647;29;20226;-88
2020/12/16 01:20:22;;;;;;;38.10;16.53;;;4.00;99.90;;;;;;4865811;29;20217;-88
2020/12/16 01:22:49;;;;;;;36.47;16.37;;;2.20;99.90;;;;;;4865884;29;20279;-88
2020/12/16 01:25:17;;;;;;;40.97;17.30;;;2.20;99.90;;;;;;4897223;29;20197;-89
2020/12/16 01:27:43;;;;;;;35.93;16.27;;;4.00;99.90;;;;;;4898123;29;20184;-89
2020/12/16 01:30:09;;;;;;;33.13;14.77;;;3.50;99.90;;;;;;4881708;29;20272;-87
2020/12/16 01:32:36;;;;;;;37.37;15.53;;;3.00;99.90;;;;;;4898815;29;20252;-85
2020/12/16 01:35:07;;;;;;;37.67;17.73;;;2.20;99.90;;;;;;4881767;29;20265;-86
2020/12/16 01:37:33;;;;;;;30.77;14.00;;;2.20;99.90;;;;;;4880846;29;20267;-87
2020/12/16 01:39:59;;;;;;;30.07;13.47;;;3.70;99.90;;;;;;4881166;29;20280;-89
2020/12/16 01:42:25;;;;;;;34.83;15.60;;;3.60;99.90;;;;;;4880698;29;20293;-89
2020/12/16 01:44:50;;;;;;;34.27;15.80;;;2.10;99.90;;;;;;4865816;29;20665;-87
2020/12/16 01:47:18;;;;;;;32.43;12.93;;;4.00;99.90;;;;;;4880910;29;20191;-89
2020/12/16 01:49:44;;;;;;;34.33;14.97;;;2.20;99.90;;;;;;4897824;29;20213;-88
2020/12/16 01:52:18;;;;;;;27.63;13.47;;;3.70;99.90;;;;;;4898039;29;20194;-88
2020/12/16 01:54:44;;;;;;;28.67;13.77;;;2.20;99.90;;;;;;4897920;29;20710;-89
2020/12/16 01:57:12;;;;;;;35.17;14.17;;;2.20;99.90;;;;;;4897873;29;20276;-88
2020/12/16 01:59:39;;;;;;;34.40;14.80;;;2.30;99.90;;;;;;4881034;29;20192;-88
2020/12/16 02:02:10;;;;;;;30.30;13.57;;;3.90;99.90;;;;;;4897901;29;20324;-89
2020/12/16 02:04:41;;;;;;;29.83;13.20;;;2.20;99.90;;;;;;4897411;29;20618;-89
2020/12/16 02:07:08;;;;;;;29.53;12.90;;;3.90;99.90;;;;;;4881054;29;20240;-89
2020/12/16 02:09:39;;;;;;;25.17;11.63;;;2.80;99.90;;;;;;4865460;29;20304;-89
2020/12/16 02:12:16;;;;;;;30.53;13.70;;;3.00;99.90;;;;;;4880901;29;20633;-89
2020/12/16 02:14:43;;;;;;;29.37;14.03;;;2.20;99.90;;;;;;4897763;29;20300;-89
2020/12/16 02:17:10;;;;;;;28.00;13.60;;;2.20;99.90;;;;;;4898605;29;20184;-89
2020/12/16 02:19:40;;;;;;;30.20;13.53;;;3.80;99.90;;;;;;4868668;29;20232;-89
2020/12/16 02:22:06;;;;;;;27.03;13.23;;;3.80;99.90;;;;;;4884587;29;20574;-89
2020/12/16 02:24:33;;;;;;;27.73;14.17;;;2.50;99.90;;;;;;4901009;29;20772;-89
2020/12/16 02:26:59;;;;;;;26.53;13.17;;;2.20;99.90;;;;;;4884554;29;20181;-89
2020/12/16 02:29:26;;;;;;;25.00;12.10;;;2.30;99.90;;;;;;4868613;29;20193;-89
2020/12/16 02:31:53;;;;;;;29.13;13.03;;;2.20;99.90;;;;;;4884320;29;20196;-89
2020/12/16 02:34:19;;;;;;;27.60;13.17;;;2.40;99.90;;;;;;4900675;29;20217;-89
2020/12/16 02:36:45;;;;;;;29.17;13.53;;;3.80;99.90;;;;;;4900725;29;20581;-88
2020/12/16 02:39:11;;;;;;;37.97;17.67;;;2.60;99.90;;;;;;4901012;29;20204;-88
2020/12/16 02:41:36;;;;;;;67.27;31.43;;;3.90;99.90;;;;;;4900302;29;20264;-88
2020/12/16 02:44:02;;;;;;;39.80;19.50;;;3.40;99.90;;;;;;4884293;29;20253;-88
2020/12/16 02:46:28;;;;;;;171.87;95.93;;;3.60;99.90;;;;;;4868459;29;20257;-88
2020/12/16 02:48:53;;;;;;;31.50;17.57;;;3.80;99.90;;;;;;4884106;29;20216;-88
2020/12/16 02:51:19;;;;;;;45.77;27.47;;;2.20;99.90;;;;;;4868222;29;20207;-88
2020/12/16 02:53:44;;;;;;;39.03;22.50;;;3.80;99.90;;;;;;4883746;29;20308;-88
2020/12/16 02:56:10;;;;;;;28.93;15.07;;;2.70;99.90;;;;;;4883910;29;20185;-88
2020/12/16 02:58:43;;;;;;;55.27;29.30;;;3.80;99.90;;;;;;4868019;29;20249;-88
2020/12/16 03:01:09;;;;;;;36.97;21.50;;;2.20;99.90;;;;;;4883803;29;20212;-88
2020/12/16 03:03:34;;;;;;;24.70;13.77;;;4.10;99.90;;;;;;4883487;29;20701;-88
2020/12/16 03:06:00;;;;;;;26.17;13.60;;;3.60;99.90;;;;;;4883936;29;20192;-89
2020/12/16 03:08:25;;;;;;;24.47;12.07;;;2.70;99.90;;;;;;4882971;29;20199;-89
2020/12/16 03:10:51;;;;;;;48.37;19.83;;;3.80;99.90;;;;;;4883822;29;20186;-88
2020/12/16 03:13:17;;;;;;;111.23;37.13;;;3.60;99.90;;;;;;4883392;29;20639;-90
2020/12/16 03:15:42;;;;;;;141.83;48.17;;;3.80;99.90;;;;;;4883652;29;20189;-89
2020/12/16 03:18:08;;;;;;;72.63;30.37;;;2.30;99.90;;;;;;4868292;29;20190;-89
2020/12/16 03:20:33;;;;;;;76.27;31.07;;;2.70;99.90;;;;;;4883358;29;20245;-89
2020/12/16 03:22:59;;;;;;;36.33;16.87;;;2.20;99.90;;;;;;4883417;29;20538;-89
2020/12/16 03:25:25;;;;;;;29.97;14.53;;;3.50;99.90;;;;;;4883155;29;20224;-89
2020/12/16 03:27:50;;;;;;;50.00;21.83;;;4.00;99.90;;;;;;4867930;29;20192;-89
2020/12/16 03:30:16;;;;;;;76.27;31.07;;;3.00;99.90;;;;;;4867628;29;20203;-89
2020/12/16 03:32:42;;;;;;;44.00;22.93;;;2.20;99.90;;;;;;4883203;29;20188;-89
2020/12/16 03:35:07;;;;;;;35.53;17.63;;;2.70;99.90;;;;;;4899687;29;20217;-89
2020/12/16 03:37:33;;;;;;;28.37;14.37;;;2.70;99.90;;;;;;4882783;29;20284;-89
2020/12/16 03:39:59;;;;;;;53.97;21.73;;;3.00;99.90;;;;;;4899945;29;20228;-89
2020/12/16 03:42:24;;;;;;;78.43;30.93;;;2.90;99.90;;;;;;4866841;29;20632;-89
2020/12/16 03:44:50;;;;;;;72.03;29.70;;;2.20;99.90;;;;;;4852159;29;20205;-88
2020/12/16 03:47:16;;;;;;;76.97;31.80;;;2.20;99.90;;;;;;4899827;29;20189;-88
2020/12/16 03:49:41;;;;;;;54.33;23.37;;;2.20;99.90;;;;;;4882534;29;20193;-88
2020/12/16 03:52:07;;;;;;;46.53;21.27;;;3.50;99.90;;;;;;4899477;29;20590;-89
2020/12/16 03:54:32;;;;;;;50.53;23.90;;;3.60;99.90;;;;;;4882530;29;20670;-89
2020/12/16 03:56:58;;;;;;;31.80;15.23;;;2.40;99.90;;;;;;4883009;29;20185;-89
2020/12/16 03:59:24;;;;;;;70.03;29.07;;;3.80;99.90;;;;;;4882394;29;20245;-89
2020/12/16 04:01:51;;;;;;;46.83;22.70;;;3.00;99.90;;;;;;4882584;29;20216;-89
2020/12/16 04:04:17;;;;;;;59.47;25.40;;;2.20;99.90;;;;;;4899270;29;20181;-88
2020/12/16 04:06:42;;;;;;;45.23;20.50;;;3.50;99.90;;;;;;4866758;29;20195;-90
2020/12/16 04:09:08;;;;;;;78.53;34.80;;;2.20;99.90;;;;;;4899343;29;20233;-90
2020/12/16 04:11:33;;;;;;;67.40;30.40;;;2.30;99.90;;;;;;4882261;29;20197;-89
2020/12/16 04:13:59;;;;;;;60.57;31.87;;;2.20;99.90;;;;;;4882495;29;20221;-88
2020/12/16 04:16:25;;;;;;;31.53;17.33;;;2.30;99.90;;;;;;4898945;29;20666;-90
2020/12/16 04:18:51;;;;;;;33.60;15.73;;;3.00;99.90;;;;;;4899191;29;20661;-89
2020/12/16 04:21:19;;;;;;;31.17;15.80;;;4.30;99.90;;;;;;4882274;29;20181;-89
2020/12/16 04:23:45;;;;;;;24.33;14.17;;;2.20;99.90;;;;;;4898942;29;20274;-90
2020/12/16 04:26:10;;;;;;;28.37;14.93;;;3.50;99.90;;;;;;4866847;29;20279;-89
2020/12/16 04:28:36;;;;;;;28.03;13.80;;;3.30;99.90;;;;;;4898767;29;20185;-91
2020/12/16 04:31:09;;;;;;;23.97;12.87;;;3.80;99.90;;;;;;4899059;29;20615;-90
2020/12/16 04:33:35;;;;;;;44.57;20.17;;;2.20;99.90;;;;;;4898585;29;20177;-90
2020/12/16 04:36:01;;;;;;;47.57;21.97;;;3.60;99.90;;;;;;4898654;29;20191;-90
2020/12/16 04:38:27;;;;;;;38.20;17.10;;;4.30;99.90;;;;;;4865971;29;20190;-90
2020/12/16 04:40:54;;;;;;;75.87;33.60;;;2.10;99.90;;;;;;4881509;29;20696;-91
2020/12/16 04:43:21;;;;;;;29.60;14.43;;;2.10;99.90;;;;;;4898859;29;20675;-90
2020/12/16 04:45:49;;;;;;;32.90;16.10;;;2.20;99.90;;;;;;4898832;29;20177;-90
2020/12/16 04:48:15;;;;;;;28.87;14.33;;;3.60;99.90;;;;;;4881867;29;20185;-90
2020/12/16 04:50:43;;;;;;;30.43;15.63;;;2.10;99.90;;;;;;4881608;29;20265;-90
2020/12/16 04:53:11;;;;;;;29.60;14.97;;;2.10;99.90;;;;;;4881821;29;20584;-90
2020/12/16 04:55:37;;;;;;;28.53;15.07;;;2.10;99.90;;;;;;4898069;29;20250;-90
2020/12/16 04:58:04;;;;;;;33.57;16.03;;;3.40;99.90;;;;;;4898904;29;20231;-90
2020/12/16 05:00:31;;;;;;;36.87;17.03;;;2.40;99.90;;;;;;4881434;29;20212;-90
2020/12/16 05:03:03;;;;;;;42.43;18.47;;;2.50;99.90;;;;;;4881626;29;20278;-90
2020/12/16 05:05:29;;;;;;;46.67;19.47;;;2.80;99.90;;;;;;4881312;29;20563;-90
2020/12/16 05:07:55;;;;;;;50.23;19.00;;;2.50;99.90;;;;;;4881633;29;20592;-89
2020/12/16 05:10:35;;;;;;;30.37;15.87;;;3.00;99.90;;;;;;4898053;29;20191;-90
2020/12/16 05:13:06;;;;;;;36.70;16.63;;;3.50;99.90;;;;;;4866211;29;20224;-90
2020/12/16 05:15:32;;;;;;;32.63;15.87;;;2.70;99.90;;;;;;4897947;29;20223;-89
2020/12/16 05:18:07;;;;;;;36.00;15.03;;;2.10;99.90;;;;;;4898047;29;20187;-90
2020/12/16 05:20:34;;;;;;;45.90;19.90;;;2.10;99.90;;;;;;4897601;29;20185;-89
2020/12/16 05:23:01;;;;;;;38.50;17.07;;;2.10;99.90;;;;;;4881648;29;20270;-89
2020/12/16 05:25:27;;;;;;;34.47;17.80;;;2.40;99.90;;;;;;4881074;29;20193;-88
2020/12/16 05:27:53;;;;;;;38.73;16.27;;;2.10;99.90;;;;;;4881691;29;20193;-89
2020/12/16 05:30:19;;;;;;;32.10;15.07;;;2.10;99.90;;;;;;4898131;29;20183;-89
2020/12/16 05:32:45;;;;;;;28.10;14.27;;;2.00;99.90;;;;;;4897729;29;20180;-89
2020/12/16 05:35:25;;;;;;;33.20;14.63;;;3.70;99.90;;;;;;4881258;29;20239;-89
2020/12/16 05:37:58;;;;;;;33.80;15.30;;;2.50;99.90;;;;;;4881244;29;20227;-89
2020/12/16 05:40:23;;;;;;;31.13;14.23;;;3.20;99.90;;;;;;4881206;29;20650;-89
2020/12/16 05:42:50;;;;;;;40.23;18.23;;;2.10;99.90;;;;;;4881097;29;20241;-89
2020/12/16 05:45:15;;;;;;;31.67;14.03;;;3.00;99.90;;;;;;4897907;29;20186;-89
2020/12/16 05:47:59;;;;;;;38.30;17.27;;;2.00;99.90;;;;;;4880760;29;20189;-89
2020/12/16 05:50:28;;;;;;;36.93;16.67;;;2.00;99.90;;;;;;4880045;29;20205;-89
2020/12/16 05:53:11;;;;;;;29.10;14.77;;;2.40;99.90;;;;;;4890846;29;20188;-89
2020/12/16 05:55:37;;;;;;;35.20;14.27;;;3.60;99.90;;;;;;4891299;29;20217;-90
2020/12/16 05:58:11;;;;;;;29.80;13.70;;;2.50;99.90;;;;;;4876383;29;20579;-90
2020/12/16 06:01:04;;;;;;;28.37;14.87;;;4.00;99.90;;;;;;4875901;29;20189;-90
2020/12/16 06:03:38;;;;;;;35.73;17.00;;;3.50;99.90;;;;;;4888464;29;20555;-89
2020/12/16 06:06:08;;;;;;;39.23;17.70;;;2.90;99.90;;;;;;4897409;29;20199;-86
2020/12/16 06:08:36;;;;;;;38.70;17.13;;;3.40;99.90;;;;;;4901056;29;20174;-85
2020/12/16 06:11:07;;;;;;;41.03;20.00;;;3.60;99.90;;;;;;4901471;29;20183;-87
2020/12/16 06:13:33;;;;;;;27.47;15.23;;;2.40;99.90;;;;;;4897826;29;20604;-84
2020/12/16 06:16:01;;;;;;;31.97;15.70;;;4.70;99.90;;;;;;4875296;29;20189;-89
2020/12/16 06:18:39;;;;;;;36.50;17.57;;;4.60;99.90;;;;;;4889676;29;20192;-89
2020/12/16 06:21:09;;;;;;;31.17;15.00;;;2.50;99.90;;;;;;4889544;29;20199;-90
2020/12/16 06:23:39;;;;;;;33.53;15.67;;;3.00;99.90;;;;;;4881953;29;20201;-89
2020/12/16 06:26:11;;;;;;;29.20;15.20;;;2.30;99.90;;;;;;4865681;29;20212;-90
2020/12/16 06:28:37;;;;;;;33.90;15.27;;;3.70;99.90;;;;;;4882418;29;20178;-90
2020/12/16 06:31:10;;;;;;;37.47;16.80;;;3.00;99.90;;;;;;4865350;29;20196;-90
2020/12/16 06:33:40;;;;;;;36.77;18.07;;;2.50;99.90;;;;;;4873404;29;20243;-90
2020/12/16 06:36:08;;;;;;;35.90;17.50;;;4.00;99.90;;;;;;4886830;29;20279;-88
2020/12/16 06:38:48;;;;;;;40.87;17.77;;;4.10;99.90;;;;;;4864747;29;20627;-89
2020/12/16 06:41:26;;;;;;;41.70;19.33;;;2.00;99.90;;;;;;4864964;29;20291;-90
2020/12/16 06:43:54;;;;;;;36.60;17.40;;;3.70;99.90;;;;;;4881521;29;20181;-88
2020/12/16 06:46:32;;;;;;;55.70;23.37;;;3.50;99.90;;;;;;4881761;29;20203;-90
2020/12/16 06:48:59;;;;;;;57.13;23.50;;;2.50;99.90;;;;;;4864853;29;20269;-88
2020/12/16 06:51:27;;;;;;;40.90;18.50;;;2.90;99.90;;;;;;4864716;29;20177;-88
2020/12/16 06:54:23;;;;;;;45.57;19.30;;;2.30;99.90;;;;;;4864040;29;20223;-88
2020/12/16 06:56:51;;;;;;;44.40;18.30;;;2.90;99.90;;;;;;4861270;29;20194;-88
2020/12/16 06:59:41;;;;;;;40.87;19.60;;;1.90;99.90;;;;;;4889515;29;20189;-88
2020/12/16 07:02:11;;;;;;;45.40;20.73;;;1.80;99.90;;;;;;4890667;29;20698;-88
2020/12/16 07:04:37;;;;;;;49.70;21.93;;;1.80;99.90;;;;;;4856538;29;20276;-87
2020/12/16 07:07:03;;;;;;;42.40;19.20;;;2.90;99.90;;;;;;4857664;29;20745;-88
2020/12/16 07:09:33;;;;;;;40.10;20.40;;;3.60;99.90;;;;;;4888961;29;20215;-87
2020/12/16 07:11:59;;;;;;;45.53;20.50;;;2.80;99.90;;;;;;4889582;29;20186;-86
2020/12/16 07:14:33;;;;;;;36.67;18.30;;;1.90;99.90;;;;;;4884335;29;20228;-88
2020/12/16 07:17:07;;;;;;;41.73;18.70;;;3.70;99.90;;;;;;4878892;29;20192;-87
2020/12/16 07:19:32;;;;;;;42.50;19.53;;;3.80;99.90;;;;;;4891539;29;20193;-87
2020/12/16 07:22:16;;;;;;;40.50;19.27;;;3.00;99.90;;;;;;4889104;29;20196;-87
2020/12/16 07:24:53;;;;;;;40.00;17.80;;;1.90;99.90;;;;;;4886899;29;20176;-87
2020/12/16 07:27:22;;;;;;;45.97;20.70;;;1.90;99.90;;;;;;4859680;29;20191;-87
2020/12/16 07:29:58;;;;;;;41.17;18.73;;;3.50;99.90;;;;;;4899087;29;20253;-86
2020/12/16 07:32:25;;;;;;;44.00;19.27;;;3.00;99.90;;;;;;4866593;29;20193;-87
2020/12/16 07:34:59;;;;;;;38.87;18.50;;;2.50;99.90;;;;;;4866789;29;20221;-86
2020/12/16 07:37:30;;;;;;;51.33;21.43;;;1.90;99.90;;;;;;4899352;29;20188;-88
2020/12/16 07:40:04;;;;;;;44.60;20.30;;;1.90;99.90;;;;;;4881483;29;20217;-88
2020/12/16 07:42:34;;;;;;;41.23;19.43;;;1.90;99.90;;;;;;4874566;29;20225;-89
2020/12/16 07:45:05;;;;;;;44.60;20.27;;;4.50;99.90;;;;;;4872629;29;20192;-89
2020/12/16 07:47:31;;;;;;;43.27;19.27;;;2.00;99.90;;;;;;4881946;29;20710;-87
2020/12/16 07:49:56;;;;;;;40.60;19.13;;;2.60;99.90;;;;;;4863652;29;20289;-88
2020/12/16 07:52:23;;;;;;;39.23;18.20;;;2.00;99.90;;;;;;4888626;29;20551;-87
2020/12/16 07:54:49;;;;;;;40.97;17.77;;;2.50;99.90;;;;;;4858193;29;20210;-87
2020/12/16 07:57:15;;;;;;;43.23;19.73;;;4.00;99.90;;;;;;4889365;29;20747;-86
2020/12/16 07:59:40;;;;;;;45.70;21.50;;;2.40;99.90;;;;;;4888008;29;20859;-86
2020/12/16 08:02:11;;;;;;;45.97;21.10;;;2.00;99.90;;;;;;4890511;29;20200;-85
2020/12/16 08:04:38;;;;;;;46.47;20.53;;;4.00;99.90;;;;;;4875973;29;20671;-86
2020/12/16 08:07:16;;;;;;;47.13;20.67;;;3.00;99.90;;;;;;4881964;29;20203;-85
2020/12/16 08:09:54;;;;;;;52.33;21.70;;;2.90;99.90;;;;;;4893630;29;20234;-84
2020/12/16 08:12:21;;;;;;;47.67;20.80;;;2.00;99.90;;;;;;4879990;29;20187;-85
2020/12/16 08:14:47;;;;;;;52.63;21.63;;;3.30;99.90;;;;;;4862167;29;20214;-87
2020/12/16 08:17:13;;;;;;;49.50;22.67;;;2.40;99.90;;;;;;4863184;29;20545;-87
2020/12/16 08:19:39;;;;;;;53.30;22.93;;;3.30;99.90;;;;;;4862760;29;20279;-85
2020/12/16 08:22:12;;;;;;;51.23;22.10;;;2.20;99.90;;;;;;4863045;29;20620;-86
2020/12/16 08:24:38;;;;;;;44.50;21.37;;;3.30;99.90;;;;;;4862830;29;20285;-85
2020/12/16 08:27:03;;;;;;;47.20;21.63;;;3.70;99.90;;;;;;4879666;29;20634;-85
2020/12/16 08:29:29;;;;;;;50.60;21.23;;;3.30;99.90;;;;;;4862848;29;20200;-87
2020/12/16 08:31:56;;;;;;;47.97;20.13;;;2.90;99.90;;;;;;4879528;29;20733;-86
2020/12/16 08:34:23;;;;;;;48.43;22.33;;;2.20;99.90;;;;;;4847368;29;20701;-87
2020/12/16 08:36:51;;;;;;;52.27;22.73;;;3.30;99.90;;;;;;4878985;29;20193;-87
2020/12/16 08:39:24;;;;;;;60.07;24.03;;;3.70;99.90;;;;;;4879553;29;20181;-86
2020/12/16 08:41:54;;;;;;;53.40;23.73;;;2.40;99.90;;;;;;4879110;29;20236;-85
2020/12/16 08:44:23;;;;;;;51.87;22.30;;;4.30;99.90;;;;;;4862744;29;20556;-86
2020/12/16 08:46:50;;;;;;;54.07;24.80;;;2.30;99.90;;;;;;4862870;29;20196;-86
2020/12/16 08:49:22;;;;;;;48.10;23.70;;;2.40;99.90;;;;;;4861884;29;20566;-86
2020/12/16 08:51:48;;;;;;;49.97;21.80;;;2.90;99.90;;;;;;4879205;29;20177;-85
2020/12/16 08:54:25;;;;;;;56.43;22.50;;;2.90;99.90;;;;;;4863145;29;20694;-86
2020/12/16 08:56:56;;;;;;;56.37;22.97;;;3.50;99.90;;;;;;4862270;29;20186;-86
2020/12/16 08:59:21;;;;;;;55.70;22.07;;;2.60;99.90;;;;;;4877943;29;20174;-86
2020/12/16 09:01:53;;;;;;;52.70;23.03;;;2.80;99.90;;;;;;4860796;29;20197;-87
2020/12/16 09:04:25;;;;;;;51.83;23.80;;;3.90;99.90;;;;;;4877851;29;20188;-87
2020/12/16 09:07:06;;;;;;;48.57;22.13;;;3.70;99.90;;;;;;4877732;29;20193;-87
2020/12/16 09:09:33;;;;;;;46.07;22.33;;;2.50;99.90;;;;;;4878901;29;20260;-86
2020/12/16 09:12:00;;;;;;;42.27;20.07;;;2.70;99.90;;;;;;4862143;29;20695;-86
2020/12/16 09:14:25;;;;;;;44.80;21.80;;;4.60;99.90;;;;;;4879545;29;20225;-86
2020/12/16 09:16:52;;;;;;;50.40;22.70;;;4.40;99.90;;;;;;4879317;29;20215;-87
2020/12/16 09:19:19;;;;;;;49.13;22.07;;;2.60;99.90;;;;;;4879787;29;20185;-87
2020/12/16 09:21:45;;;;;;;54.00;22.57;;;2.50;99.90;;;;;;4878921;29;20652;-87
2020/12/16 09:24:11;;;;;;;42.80;20.73;;;3.20;99.90;;;;;;4879454;29;20190;-87
2020/12/16 09:26:43;;;;;;;48.73;22.90;;;4.20;99.90;;;;;;4862914;29;20245;-88
2020/12/16 09:29:24;;;;;;;55.23;23.27;;;2.60;99.90;;;;;;4879682;29;20270;-86
2020/12/16 09:32:11;;;;;;;49.50;22.37;;;2.70;99.90;;;;;;4879080;29;20233;-86
2020/12/16 09:34:51;;;;;;;49.80;23.23;;;2.70;99.90;;;;;;4862638;29;20218;-87
2020/12/16 09:37:33;;;;;;;55.10;22.90;;;2.70;99.90;;;;;;4862903;29;20265;-86
2020/12/16 09:40:14;;;;;;;51.30;22.27;;;2.70;99.90;;;;;;4879077;29;20346;-86
2020/12/16 09:42:56;;;;;;;50.33;23.57;;;2.70;99.90;;;;;;4879239;29;20236;-86
2020/12/16 09:45:22;;;;;;;55.90;23.63;;;2.80;99.90;;;;;;4862680;29;20182;-87
2020/12/16 09:47:49;;;;;;;64.33;25.73;;;3.00;99.90;;;;;;4862421;29;20189;-90
2020/12/16 09:50:17;;;;;;;61.70;26.43;;;3.70;99.90;;;;;;4879545;29;20265;-89
2020/12/16 09:52:42;;;;;;;56.43;26.57;;;4.40;99.90;;;;;;4878897;29;20182;-86
2020/12/16 09:55:12;;;;;;;58.73;26.27;;;2.90;99.90;;;;;;4879132;29;20259;-88
2020/12/16 09:57:40;;;;;;;58.67;26.43;;;3.00;99.90;;;;;;4862416;29;20272;-89
2020/12/16 10:00:06;;;;;;;62.57;28.17;;;3.00;99.90;;;;;;4864550;29;20673;-85
2020/12/16 10:02:34;;;;;;;68.93;29.17;;;3.00;99.90;;;;;;4856641;29;20644;-89
2020/12/16 10:05:05;;;;;;;61.80;27.80;;;3.00;99.90;;;;;;4862855;29;20960;-91
2020/12/16 10:07:34;;;;;;;57.27;27.03;;;3.10;99.90;;;;;;4879821;29;20175;-95
2020/12/16 10:10:00;;;;;;;52.03;24.60;;;3.00;99.90;;;;;;4866765;29;20186;-87
2020/12/16 10:12:28;;;;;;;71.77;27.13;;;3.20;99.90;;;;;;4889364;29;20186;-90
2020/12/16 10:14:56;;;;;;;56.37;25.07;;;3.40;99.90;;;;;;4856656;29;20237;-90
2020/12/16 10:17:26;;;;;;;58.37;27.13;;;3.30;99.90;;;;;;4847308;29;20204;-91
2020/12/16 10:19:53;;;;;;;53.90;25.47;;;5.20;99.90;;;;;;4861859;29;20186;-90
2020/12/16 10:22:19;;;;;;;64.67;28.70;;;4.90;99.90;;;;;;4886315;29;20200;-90
2020/12/16 10:24:45;;;;;;;61.17;27.73;;;2.90;99.90;;;;;;4854942;29;20190;-89
2020/12/16 10:27:10;;;;;;;57.23;26.97;;;2.90;99.90;;;;;;4875332;29;20626;-88
2020/12/16 10:29:36;;;;;;;58.67;27.30;;;3.70;99.90;;;;;;4897931;29;20197;-88
2020/12/16 10:32:02;;;;;;;67.93;28.53;;;3.00;99.90;;;;;;4865173;29;20182;-93
2020/12/16 10:34:28;;;;;;;54.37;26.63;;;5.00;99.90;;;;;;4865340;29;20725;-88
2020/12/16 10:36:54;;;;;;;58.93;26.60;;;3.00;99.90;;;;;;4869284;29;20681;-90
2020/12/16 10:39:20;;;;;;;58.17;28.03;;;3.60;99.90;;;;;;4880955;29;20185;-91
2020/12/16 10:41:52;;;;;;;59.50;28.40;;;3.10;99.90;;;;;;4881669;29;20244;-88
2020/12/16 10:44:18;;;;;;;54.40;27.90;;;3.80;99.90;;;;;;4882048;29;20204;-90
2020/12/16 10:46:49;;;;;;;62.13;25.53;;;3.50;99.90;;;;;;4864846;29;20190;-90
2020/12/16 10:49:16;;;;;;;54.63;27.70;;;3.90;99.90;;;;;;4864789;29;20190;-91
2020/12/16 10:51:43;;;;;;;52.90;24.37;;;3.20;99.90;;;;;;4864689;29;20256;-90
2020/12/16 10:54:09;;;;;;;52.57;25.63;;;4.30;99.90;;;;;;4849116;29;20218;-92
2020/12/16 10:56:34;;;;;;;59.00;27.30;;;3.10;99.90;;;;;;4867370;29;20192;-90
2020/12/16 10:59:00;;;;;;;58.27;26.10;;;3.70;99.90;;;;;;4887704;29;20186;-89
2020/12/16 11:01:26;;;;;;;49.93;25.07;;;3.50;99.90;;;;;;4872939;29;20648;-93
2020/12/16 11:03:51;;;;;;;56.93;25.97;;;3.30;99.90;;;;;;4872054;29;20194;-92
2020/12/16 11:06:17;;;;;;;54.93;25.27;;;3.30;99.90;;;;;;4874675;29;20635;-89
2020/12/16 11:08:46;;;;;;;55.87;26.43;;;3.20;99.90;;;;;;4890171;29;20218;-92
2020/12/16 11:11:12;;;;;;;61.97;25.23;;;3.30;99.90;;;;;;4878010;29;20243;-92
2020/12/16 11:13:38;;;;;;;52.53;24.83;;;3.20;99.90;;;;;;4877355;29;20547;-92
2020/12/16 11:16:03;;;;;;;52.77;25.77;;;3.40;99.90;;;;;;4890487;29;20256;-91
2020/12/16 11:18:29;;;;;;;47.17;21.53;;;4.50;99.90;;;;;;4890905;29;20221;-90
2020/12/16 11:20:55;;;;;;;59.07;28.30;;;4.80;99.90;;;;;;4888890;29;20186;-91
2020/12/16 11:23:21;;;;;;;60.93;26.10;;;3.20;99.90;;;;;;4859513;29;20190;-89
2020/12/16 11:25:47;;;;;;;56.03;26.00;;;4.00;99.90;;;;;;4861281;29;20551;-89
2020/12/16 11:28:12;;;;;;;56.20;26.47;;;4.30;99.90;;;;;;4848848;29;20236;-90
2020/12/16 11:30:41;;;;;;;58.83;27.00;;;3.20;99.90;;;;;;4864231;29;20186;-91
2020/12/16 11:33:06;;;;;;;48.03;22.00;;;3.30;99.90;;;;;;4857107;29;20589;-91
2020/12/16 11:35:32;;;;;;;56.27;26.50;;;3.20;99.90;;;;;;4882713;29;20209;-90
2020/12/16 11:37:58;;;;;;;53.77;26.60;;;3.00;99.90;;;;;;4883104;29;20308;-91
2020/12/16 11:40:24;;;;;;;56.80;25.77;;;3.20;99.90;;;;;;4886461;29;20311;-92
2020/12/16 11:42:49;;;;;;;58.07;27.30;;;3.40;99.90;;;;;;4882453;29;20237;-89
2020/12/16 11:45:17;;;;;;;62.47;25.80;;;5.20;99.90;;;;;;4857061;29;20283;-94
2020/12/16 11:47:43;;;;;;;62.70;26.37;;;3.90;99.90;;;;;;4859430;29;20186;-89
2020/12/16 11:50:10;;;;;;;51.73;24.97;;;4.60;99.90;;;;;;4890993;29;20382;-90
2020/12/16 11:52:36;;;;;;;50.83;24.57;;;3.40;99.90;;;;;;4879436;29;20200;-90
2020/12/16 11:55:03;;;;;;;53.97;24.90;;;3.80;99.90;;;;;;4867342;29;20227;-88
2020/12/16 11:57:29;;;;;;;50.37;25.33;;;3.30;99.90;;;;;;4872244;29;20182;-91
2020/12/16 11:59:54;;;;;;;56.47;25.10;;;3.40;99.90;;;;;;4889011;29;20248;-88
2020/12/16 12:02:20;;;;;;;58.70;26.03;;;4.90;99.90;;;;;;4873422;29;20544;-88
2020/12/16 12:04:46;;;;;;;57.93;25.47;;;5.30;99.90;;;;;;4863913;29;20643;-91
2020/12/16 12:07:11;;;;;;;54.73;26.53;;;5.00;99.90;;;;;;4857510;29;20591;-90
2020/12/16 12:09:37;;;;;;;54.83;26.77;;;3.40;99.90;;;;;;4864095;29;20186;-89
2020/12/16 12:12:03;;;;;;;57.57;27.07;;;4.20;99.90;;;;;;4871425;29;20197;-88
2020/12/16 12:14:30;;;;;;;53.37;24.13;;;3.50;99.90;;;;;;4873658;29;20236;-89
2020/12/16 12:16:56;;;;;;;54.07;26.00;;;3.50;99.90;;;;;;4871272;29;20231;-89
2020/12/16 12:19:22;;;;;;;58.10;27.30;;;4.80;99.90;;;;;;4887979;29;20182;-89
2020/12/16 12:21:48;;;;;;;55.97;27.17;;;3.50;99.90;;;;;;4873434;29;20193;-89
2020/12/16 12:24:14;;;;;;;52.27;24.80;;;3.50;99.90;;;;;;4872167;29;20645;-89
2020/12/16 12:26:39;;;;;;;56.67;26.47;;;3.60;99.90;;;;;;4871501;29;20277;-88
2020/12/16 12:29:05;;;;;;;62.93;27.10;;;4.20;99.90;;;;;;4873949;29;20605;-87
2020/12/16 12:31:31;;;;;;;59.73;27.03;;;3.60;99.90;;;;;;4889153;29;20187;-88
2020/12/16 12:33:57;;;;;;;57.50;28.37;;;4.00;99.90;;;;;;4887087;29;20707;-91
2020/12/16 12:36:23;;;;;;;66.43;28.60;;;4.00;99.90;;;;;;4860286;29;20193;-90
2020/12/16 12:38:48;;;;;;;57.63;28.40;;;4.30;99.90;;;;;;4871506;29;20185;-91
2020/12/16 12:41:17;;;;;;;63.80;29.07;;;3.60;99.90;;;;;;4871248;29;20574;-91